createdAt,value
2018-03-11T00:01:18.457Z,99.90
2018-03-11T00:03:46.432Z,99.90
2018-03-11T00:06:14.445Z,99.90
2018-03-11T00:08:41.492Z,99.90
2018-03-11T00:11:10.378Z,99.90
2018-03-11T00:13:37.446Z,99.90
2018-03-11T00:16:04.493Z,99.90
2018-03-11T00:18:33.435Z,99.90
2018-03-11T00:20:59.891Z,99.90
2018-03-11T00:23:27.380Z,99.90
2018-03-11T00:25:54.419Z,99.90
2018-03-11T00:28:21.519Z,99.90
2018-03-11T00:30:48.556Z,99.90
2018-03-11T00:33:15.594Z,99.90
2018-03-11T00:35:42.685Z,99.90
2018-03-11T00:38:09.708Z,99.90
2018-03-11T00:40:36.737Z,99.90
2018-03-11T00:45:31.858Z,99.90
2018-03-11T00:47:58.909Z,99.90
2018-03-11T00:50:25.998Z,99.90
2018-03-11T00:52:53.890Z,99.90
2018-03-11T00:55:20.922Z,99.90
2018-03-11T00:57:48.015Z,99.90
2018-03-11T01:00:15.038Z,99.90
2018-03-11T01:02:42.056Z,99.90
2018-03-11T01:05:09.134Z,99.90
2018-03-11T01:10:06.621Z,99.90
2018-03-11T01:15:13.016Z,99.90
2018-03-11T01:17:40.087Z,99.90
2018-03-11T01:20:07.122Z,99.90
2018-03-11T01:22:35.079Z,99.90
2018-03-11T01:25:03.461Z,99.90
2018-03-11T01:27:30.466Z,99.90
2018-03-11T01:32:40.849Z,99.90
2018-03-11T01:35:07.878Z,99.90
2018-03-11T01:37:34.926Z,99.90
2018-03-11T01:40:02.959Z,99.90
2018-03-11T01:42:29.999Z,99.90
2018-03-11T01:44:57.033Z,99.90
2018-03-11T01:47:24.117Z,99.90
2018-03-11T01:49:52.080Z,99.90
2018-03-11T01:52:19.116Z,99.90
2018-03-11T01:54:46.187Z,99.90
2018-03-11T01:57:13.218Z,99.90
2018-03-11T01:59:40.244Z,99.90
2018-03-11T02:02:07.318Z,99.90
2018-03-11T02:04:34.344Z,99.90
2018-03-11T02:07:01.376Z,99.90
2018-03-11T02:09:28.451Z,99.90
2018-03-11T02:11:56.420Z,99.90
2018-03-11T02:14:23.442Z,99.90
2018-03-11T02:16:50.961Z,99.90
2018-03-11T02:19:17.989Z,99.90
2018-03-11T02:21:45.019Z,99.90
2018-03-11T02:24:12.104Z,99.90
2018-03-11T02:26:39.136Z,99.90
2018-03-11T02:29:06.169Z,99.90
2018-03-11T02:31:33.256Z,99.90
2018-03-11T02:34:00.287Z,99.90
2018-03-11T02:36:27.311Z,99.90
2018-03-11T02:38:54.399Z,99.90
2018-03-11T02:41:21.415Z,99.90
2018-03-11T02:46:15.629Z,99.90
2018-03-11T02:48:42.666Z,99.50
2018-03-11T02:51:09.680Z,99.90
2018-03-11T02:53:36.758Z,99.90
2018-03-11T02:58:45.313Z,99.90
2018-03-11T03:01:12.334Z,99.90
2018-03-11T03:03:39.382Z,99.90
2018-03-11T03:06:06.443Z,99.90
2018-03-11T03:08:35.252Z,99.90
2018-03-11T03:11:02.275Z,99.90
2018-03-11T03:13:29.370Z,99.90
2018-03-11T03:15:56.399Z,99.90
2018-03-11T03:18:24.243Z,99.90
2018-03-11T03:20:51.320Z,99.90
2018-03-11T03:23:18.344Z,99.90
2018-03-11T03:25:45.373Z,99.90
2018-03-11T03:28:12.460Z,99.90
2018-03-11T03:30:39.545Z,99.90
2018-03-11T03:33:06.515Z,99.90
2018-03-11T03:35:33.623Z,99.90
2018-03-11T03:38:01.580Z,99.90
2018-03-11T03:40:29.062Z,99.90
2018-03-11T03:42:56.135Z,99.90
2018-03-11T03:45:23.150Z,99.60
2018-03-11T03:47:50.177Z,99.90
2018-03-11T03:50:17.248Z,99.90
2018-03-11T03:55:11.381Z,99.90
2018-03-11T03:57:38.747Z,99.90
2018-03-11T04:00:06.603Z,99.90
2018-03-11T04:02:33.631Z,99.90
2018-03-11T04:05:00.704Z,99.90
2018-03-11T04:07:27.724Z,99.90
2018-03-11T04:09:54.749Z,99.90
2018-03-11T04:14:48.933Z,99.90
2018-03-11T04:17:15.968Z,99.90
2018-03-11T04:22:21.823Z,99.90
2018-03-11T04:24:48.909Z,99.90
2018-03-11T04:27:15.941Z,99.90
2018-03-11T04:29:42.957Z,99.90
2018-03-11T04:32:10.048Z,99.90
2018-03-11T04:34:38.230Z,99.90
2018-03-11T04:37:06.196Z,99.90
2018-03-11T04:39:33.269Z,99.90
2018-03-11T04:42:00.299Z,99.90
2018-03-11T04:44:27.403Z,99.90
2018-03-11T04:46:54.424Z,99.90
2018-03-11T04:49:24.294Z,99.90
2018-03-11T04:51:48.463Z,99.90
2018-03-11T04:54:15.558Z,99.90
2018-03-11T04:56:42.601Z,99.90
2018-03-11T04:59:09.619Z,99.90
2018-03-11T05:01:36.696Z,99.90
2018-03-11T05:04:03.705Z,99.90
2018-03-11T05:06:30.730Z,99.90
2018-03-11T05:08:57.803Z,99.90
2018-03-11T05:11:25.652Z,99.90
2018-03-11T05:13:52.675Z,99.90
2018-03-11T05:16:19.764Z,99.90
2018-03-11T05:18:48.979Z,99.90
2018-03-11T05:21:16.002Z,99.90
2018-03-11T05:23:43.085Z,99.90
2018-03-11T05:26:10.100Z,99.90
2018-03-11T05:28:37.127Z,99.90
2018-03-11T05:31:05.161Z,99.90
2018-03-11T05:33:32.186Z,99.90
2018-03-11T05:35:59.211Z,99.90
2018-03-11T05:38:27.179Z,99.90
2018-03-11T05:40:55.167Z,99.90
2018-03-11T05:46:00.715Z,99.90
2018-03-11T05:48:27.735Z,99.90
2018-03-11T05:50:54.776Z,99.90
2018-03-11T05:53:21.865Z,99.90
2018-03-11T05:55:48.908Z,99.90
2018-03-11T05:58:16.826Z,99.90
2018-03-11T06:00:43.911Z,99.90
2018-03-11T06:03:11.954Z,99.90
2018-03-11T06:05:38.999Z,99.90
2018-03-11T06:08:06.104Z,99.90
2018-03-11T06:10:33.182Z,99.90
2018-03-11T06:13:00.168Z,99.90
2018-03-11T06:15:27.241Z,99.90
2018-03-11T06:17:54.327Z,99.90
2018-03-11T06:23:04.151Z,97.30
2018-03-11T06:25:32.056Z,98.10
2018-03-11T06:27:59.079Z,99.90
2018-03-11T06:30:26.177Z,99.90
2018-03-11T06:32:55.494Z,97.00
2018-03-11T06:35:22.523Z,98.30
2018-03-11T06:37:49.607Z,99.90
2018-03-11T06:40:16.656Z,99.90
2018-03-11T06:42:43.702Z,99.90
2018-03-11T06:45:10.841Z,99.90
2018-03-11T06:47:37.864Z,99.90
2018-03-11T06:50:04.889Z,99.90
2018-03-11T06:52:31.966Z,99.90
2018-03-11T06:54:58.977Z,99.90
2018-03-11T06:57:25.993Z,99.90
2018-03-11T07:02:21.034Z,97.80
2018-03-11T07:04:48.059Z,98.00
2018-03-11T07:09:42.253Z,99.10
2018-03-11T07:12:09.531Z,99.90
2018-03-11T07:14:36.606Z,99.80
2018-03-11T07:17:03.630Z,99.90
2018-03-11T07:19:31.546Z,99.80
2018-03-11T07:21:58.618Z,99.90
2018-03-11T07:24:26.574Z,99.90
2018-03-11T07:26:53.588Z,98.50
2018-03-11T07:29:20.673Z,98.10
2018-03-11T07:31:47.694Z,99.30
2018-03-11T07:34:14.720Z,98.00
2018-03-11T07:36:41.806Z,98.80
2018-03-11T07:39:08.827Z,99.00
2018-03-11T07:41:35.841Z,92.80
2018-03-11T07:44:02.951Z,95.40
2018-03-11T07:46:29.974Z,95.80
2018-03-11T07:51:35.960Z,98.60
2018-03-11T07:54:02.988Z,99.00
2018-03-11T07:56:30.006Z,99.50
2018-03-11T07:58:57.137Z,99.30
2018-03-11T08:01:24.182Z,96.90
2018-03-11T08:03:52.161Z,96.40
2018-03-11T08:06:19.245Z,95.40
2018-03-11T08:08:46.253Z,93.80
2018-03-11T08:11:13.279Z,94.50
2018-03-11T08:13:40.351Z,95.80
2018-03-11T08:16:08.333Z,94.30
2018-03-11T08:18:35.358Z,92.60
2018-03-11T08:21:02.431Z,93.40
2018-03-11T08:23:29.454Z,95.40
2018-03-11T08:25:56.482Z,95.40
2018-03-11T08:28:23.603Z,94.70
2018-03-11T08:30:50.606Z,95.50
2018-03-11T08:33:17.658Z,95.80
2018-03-11T08:35:44.747Z,94.00
2018-03-11T08:38:11.766Z,94.30
2018-03-11T08:40:38.877Z,92.30
2018-03-11T08:45:48.535Z,88.80
2018-03-11T08:48:17.116Z,88.90
2018-03-11T08:50:44.926Z,84.00
2018-03-11T08:53:13.910Z,87.40
2018-03-11T08:55:42.228Z,90.00
2018-03-11T08:58:08.828Z,87.70
2018-03-11T09:03:03.000Z,91.10
2018-03-11T09:05:30.017Z,89.70
2018-03-11T09:07:57.054Z,87.60
2018-03-11T09:10:24.180Z,86.50
2018-03-11T09:12:51.173Z,83.30
2018-03-11T09:15:18.200Z,78.40
2018-03-11T09:17:45.277Z,82.70
2018-03-11T09:20:12.311Z,86.10
2018-03-11T09:22:39.706Z,85.60
2018-03-11T09:27:34.630Z,77.30
2018-03-11T09:30:01.648Z,68.10
2018-03-11T09:32:28.759Z,74.40
2018-03-11T09:34:56.603Z,76.40
2018-03-11T09:37:23.621Z,75.60
2018-03-11T09:39:50.698Z,74.70
2018-03-11T09:42:17.719Z,76.00
2018-03-11T09:44:44.741Z,73.80
2018-03-11T09:47:11.824Z,70.90
2018-03-11T09:52:18.891Z,70.50
2018-03-11T09:54:45.909Z,72.50
2018-03-11T09:57:18.108Z,70.80
2018-03-11T09:59:45.203Z,69.00
2018-03-11T10:02:12.202Z,67.10
2018-03-11T10:07:06.400Z,63.40
2018-03-11T10:09:33.420Z,65.30
2018-03-11T10:12:00.444Z,64.10
2018-03-11T10:14:31.020Z,68.50
2018-03-11T10:16:57.787Z,68.90
2018-03-11T10:19:24.810Z,69.60
2018-03-11T10:21:51.905Z,67.40
2018-03-11T10:24:18.888Z,68.20
2018-03-11T10:26:45.909Z,65.70
2018-03-11T10:29:12.988Z,67.90
2018-03-11T10:34:07.103Z,69.10
2018-03-11T10:36:34.169Z,68.20
2018-03-11T10:39:01.178Z,67.60
2018-03-11T10:41:28.189Z,69.30
2018-03-11T10:43:55.268Z,69.80
2018-03-11T10:48:50.226Z,66.80
2018-03-11T10:51:17.318Z,62.00
2018-03-11T10:56:11.447Z,51.50
2018-03-11T10:58:38.514Z,49.60
2018-03-11T11:01:05.527Z,47.30
2018-03-11T11:03:32.539Z,46.50
2018-03-11T11:05:59.618Z,45.50
2018-03-11T11:08:26.665Z,46.30
2018-03-11T11:10:53.686Z,44.80
2018-03-11T11:15:57.072Z,42.00
2018-03-11T11:18:24.143Z,42.10
2018-03-11T11:20:51.212Z,41.50
2018-03-11T11:23:18.192Z,42.10
2018-03-11T11:25:45.262Z,41.00
2018-03-11T11:28:12.284Z,41.90
2018-03-11T11:30:39.370Z,43.30
2018-03-11T11:33:06.382Z,44.90
2018-03-11T11:35:33.956Z,44.40
2018-03-11T11:38:00.972Z,44.50
2018-03-11T11:40:31.207Z,44.20
2018-03-11T11:42:58.225Z,43.50
2018-03-11T11:45:25.243Z,44.70
2018-03-11T11:47:52.318Z,42.90
2018-03-11T11:50:19.333Z,42.10
2018-03-11T11:55:13.512Z,38.70
2018-03-11T11:57:40.521Z,39.30
2018-03-11T12:00:07.541Z,39.80
2018-03-11T12:02:34.616Z,39.80
2018-03-11T12:05:01.630Z,37.90
2018-03-11T12:07:28.657Z,38.10
2018-03-11T12:09:55.736Z,37.00
2018-03-11T12:12:22.753Z,37.20
2018-03-11T12:17:16.951Z,36.80
2018-03-11T12:19:43.976Z,36.10
2018-03-11T12:22:11.936Z,36.20
2018-03-11T12:24:39.007Z,36.30
2018-03-11T12:27:06.033Z,36.20
2018-03-11T12:29:33.058Z,36.00
2018-03-11T12:32:00.141Z,35.30
2018-03-11T12:34:27.212Z,36.60
2018-03-11T12:39:33.641Z,36.20
2018-03-11T12:42:00.705Z,36.00
2018-03-11T12:44:27.712Z,35.80
2018-03-11T12:46:55.537Z,35.80
2018-03-11T12:49:22.564Z,36.70
2018-03-11T12:51:49.606Z,37.20
2018-03-11T12:54:16.684Z,37.10
2018-03-11T12:56:43.717Z,37.70
2018-03-11T13:01:37.887Z,37.40
2018-03-11T13:04:04.907Z,37.80
2018-03-11T13:06:31.937Z,37.20
2018-03-11T13:08:59.039Z,37.90
2018-03-11T13:11:26.060Z,37.00
2018-03-11T13:13:53.083Z,38.00
2018-03-11T13:16:20.162Z,38.30
2018-03-11T13:18:47.174Z,38.00
2018-03-11T13:21:14.242Z,38.10
2018-03-11T13:23:41.286Z,37.80
2018-03-11T13:26:08.317Z,38.40
2018-03-11T13:31:23.473Z,38.10
2018-03-11T13:34:02.423Z,38.30
2018-03-11T13:36:29.445Z,39.00
2018-03-11T13:39:08.406Z,39.20
2018-03-11T13:41:35.442Z,38.20
2018-03-11T13:44:02.471Z,38.60
2018-03-11T13:46:41.412Z,37.70
2018-03-11T13:52:01.489Z,37.80
2018-03-11T13:54:28.791Z,37.80
2018-03-11T13:57:08.246Z,37.40
2018-03-11T13:59:36.288Z,36.60
2018-03-11T14:02:04.209Z,37.20
2018-03-11T14:04:31.278Z,37.70
2018-03-11T14:06:58.315Z,36.90
2018-03-11T14:09:25.340Z,37.70
2018-03-11T14:11:52.422Z,37.60
2018-03-11T14:14:19.445Z,37.30
2018-03-11T14:16:46.477Z,37.60
2018-03-11T14:19:13.566Z,38.30
2018-03-11T14:24:18.754Z,38.90
2018-03-11T14:26:45.780Z,38.70
2018-03-11T14:29:12.816Z,38.70
2018-03-11T14:31:39.885Z,38.70
2018-03-11T14:34:07.365Z,38.40
2018-03-11T14:36:35.304Z,39.00
2018-03-11T14:39:03.338Z,39.30
2018-03-11T14:41:32.606Z,39.50
2018-03-11T14:43:58.195Z,39.60
2018-03-11T14:46:25.261Z,39.30
2018-03-11T14:48:52.301Z,39.50
2018-03-11T14:58:42.697Z,40.20
2018-03-11T15:01:10.089Z,40.10
2018-03-11T15:03:37.105Z,40.20
2018-03-11T15:06:04.482Z,39.90
2018-03-11T15:10:59.464Z,40.50
2018-03-11T15:13:26.489Z,40.70
2018-03-11T15:15:53.569Z,40.30
2018-03-11T15:18:20.593Z,40.90
2018-03-11T15:20:47.609Z,40.90
2018-03-11T15:23:14.685Z,41.10
2018-03-11T15:25:41.711Z,42.10
2018-03-11T15:30:40.794Z,42.50
2018-03-11T15:33:07.833Z,42.50
2018-03-11T15:35:35.603Z,41.50
2018-03-11T15:38:02.680Z,40.60
2018-03-11T15:40:29.714Z,39.80
2018-03-11T15:42:56.739Z,39.00
2018-03-11T15:48:03.796Z,38.70
2018-03-11T15:50:30.868Z,38.20
2018-03-11T15:52:57.897Z,38.30
2018-03-11T15:55:24.920Z,38.60
2018-03-11T15:57:51.986Z,38.10
2018-03-11T16:00:19.020Z,38.30
2018-03-11T16:02:46.045Z,38.70
2018-03-11T16:05:13.122Z,39.20
2018-03-11T16:07:40.140Z,38.90
2018-03-11T16:10:07.164Z,39.60
2018-03-11T16:12:35.182Z,39.20
2018-03-11T16:15:03.193Z,39.50
2018-03-11T16:17:30.173Z,39.70
2018-03-11T16:19:57.240Z,39.70
2018-03-11T16:22:24.582Z,40.00
2018-03-11T16:24:51.614Z,40.40
2018-03-11T16:27:19.665Z,39.60
2018-03-11T16:29:46.677Z,39.80
2018-03-11T16:32:13.711Z,40.00
2018-03-11T16:34:40.781Z,40.10
2018-03-11T16:37:08.781Z,41.50
2018-03-11T16:39:35.836Z,41.00
2018-03-11T16:42:02.918Z,41.20
2018-03-11T16:44:30.954Z,42.00
2018-03-11T16:46:57.993Z,44.00
2018-03-11T16:49:25.094Z,40.50
2018-03-11T16:51:52.142Z,41.90
2018-03-11T16:56:46.383Z,43.00
2018-03-11T16:59:13.417Z,42.00
2018-03-11T17:01:40.454Z,41.20
2018-03-11T17:04:07.542Z,41.70
2018-03-11T17:06:34.609Z,41.50
2018-03-11T17:09:01.639Z,42.00
2018-03-11T17:11:28.761Z,42.70
2018-03-11T17:16:34.322Z,40.30
2018-03-11T17:21:40.405Z,40.20
2018-03-11T17:24:07.509Z,40.30
2018-03-11T17:26:34.468Z,40.30
2018-03-11T17:29:01.613Z,40.50
2018-03-11T17:31:28.643Z,40.60
2018-03-11T17:36:22.815Z,41.50
2018-03-11T17:38:49.827Z,41.20
2018-03-11T17:41:16.849Z,41.20
2018-03-11T17:43:43.937Z,41.30
2018-03-11T17:46:10.944Z,41.40
2018-03-11T17:48:37.967Z,41.90
2018-03-11T17:51:05.041Z,42.40
2018-03-11T17:53:32.060Z,41.90
2018-03-11T17:55:59.110Z,41.80
2018-03-11T17:58:26.184Z,42.10
2018-03-11T18:00:53.213Z,42.40
2018-03-11T18:03:20.236Z,41.90
2018-03-11T18:05:49.155Z,42.20
2018-03-11T18:08:16.172Z,41.90
2018-03-11T18:10:43.192Z,41.40
2018-03-11T18:13:10.274Z,41.00
2018-03-11T18:15:37.289Z,41.50
2018-03-11T18:18:05.255Z,41.80
2018-03-11T18:20:33.290Z,41.90
2018-03-11T18:23:00.321Z,42.70
2018-03-11T18:25:27.359Z,42.20
2018-03-11T18:27:54.482Z,42.60
2018-03-11T18:30:22.798Z,42.00
2018-03-11T18:32:49.822Z,43.60
2018-03-11T18:35:16.898Z,43.60
2018-03-11T18:37:43.924Z,43.60
2018-03-11T18:40:11.808Z,43.00
2018-03-11T18:47:55.859Z,42.20
2018-03-11T18:50:23.729Z,42.20
2018-03-11T18:52:50.761Z,41.20
2018-03-11T18:55:17.857Z,43.10
2018-03-11T18:57:44.884Z,41.60
2018-03-11T19:00:11.936Z,41.50
2018-03-11T19:02:39.016Z,42.10
2018-03-11T19:05:06.048Z,41.70
2018-03-11T19:07:33.089Z,41.70
2018-03-11T19:10:00.174Z,41.80
2018-03-11T19:12:27.215Z,41.70
2018-03-11T19:19:48.553Z,41.20
2018-03-11T19:22:15.576Z,42.40
2018-03-11T19:24:42.660Z,42.60
2018-03-11T19:29:36.910Z,42.70
2018-03-11T19:32:04.012Z,41.90
2018-03-11T19:34:31.042Z,41.90
2018-03-11T19:36:58.058Z,42.20
2018-03-11T19:39:25.144Z,42.10
2018-03-11T19:41:52.171Z,41.90
2018-03-11T19:44:19.207Z,42.00
2018-03-11T19:46:46.290Z,42.60
2018-03-11T19:49:13.325Z,42.50
2018-03-11T19:51:40.874Z,43.40
2018-03-11T19:54:07.947Z,44.30
2018-03-11T19:56:35.057Z,43.50
2018-03-11T19:59:02.098Z,42.70
2018-03-11T20:01:29.176Z,42.40
2018-03-11T20:06:37.127Z,43.10
2018-03-11T20:09:04.117Z,42.80
2018-03-11T20:11:31.129Z,42.60
2018-03-11T20:13:58.199Z,42.20
2018-03-11T20:16:25.242Z,43.00
2018-03-11T20:18:52.262Z,43.00
2018-03-11T20:21:19.374Z,44.10
2018-03-11T20:26:13.582Z,44.20
2018-03-11T20:28:41.479Z,44.70
2018-03-11T20:31:08.501Z,44.70
2018-03-11T20:33:35.527Z,44.80
2018-03-11T20:36:02.624Z,46.40
2018-03-11T20:38:29.641Z,46.00
2018-03-11T20:40:56.660Z,47.10
2018-03-11T20:43:23.747Z,46.80
2018-03-11T20:45:50.766Z,46.90
2018-03-11T20:48:17.878Z,46.90
2018-03-11T20:50:44.888Z,47.10
2018-03-11T20:53:12.028Z,47.40
2018-03-11T20:55:39.399Z,47.50
2018-03-11T20:58:06.434Z,47.30
2018-03-11T21:00:33.450Z,48.50
2018-03-11T21:03:00.540Z,48.70
2018-03-11T21:05:27.566Z,49.80
2018-03-11T21:07:54.606Z,50.00
2018-03-11T21:10:21.710Z,50.30
2018-03-11T21:15:15.880Z,50.10
2018-03-11T21:17:43.943Z,50.60
2018-03-11T21:20:10.973Z,51.10
2018-03-11T21:22:38.268Z,50.90
2018-03-11T21:25:05.347Z,50.20
2018-03-11T21:30:10.920Z,51.10
2018-03-11T21:32:37.936Z,50.90
2018-03-11T21:35:04.958Z,51.70
2018-03-11T21:37:32.039Z,51.00
2018-03-11T21:39:59.066Z,51.10
2018-03-11T21:42:26.117Z,51.10
2018-03-11T21:44:53.207Z,51.30
2018-03-11T21:47:20.220Z,51.50
2018-03-11T21:49:47.336Z,51.20
2018-03-11T21:52:15.116Z,51.30
2018-03-11T21:54:42.131Z,52.30
2018-03-11T21:57:09.151Z,52.30
2018-03-11T21:59:36.238Z,51.80
2018-03-11T22:02:03.234Z,51.20
2018-03-11T22:04:30.266Z,51.20
2018-03-11T22:06:57.354Z,51.10
2018-03-11T22:09:24.377Z,51.20
2018-03-11T22:11:51.400Z,53.00
2018-03-11T22:14:18.467Z,53.00
2018-03-11T22:16:45.495Z,52.40
2018-03-11T22:19:12.526Z,52.40
2018-03-11T22:21:39.610Z,52.40
2018-03-11T22:24:06.635Z,52.90
2018-03-11T22:26:33.663Z,53.60
2018-03-11T22:29:00.744Z,53.40
2018-03-11T22:31:27.776Z,52.90
2018-03-11T22:33:54.798Z,52.30
2018-03-11T22:36:21.883Z,52.40
2018-03-11T22:38:48.950Z,52.40
2018-03-11T22:41:15.968Z,52.50
2018-03-11T22:43:43.043Z,54.10
2018-03-11T22:46:10.110Z,54.50
2018-03-11T22:53:32.377Z,56.10
2018-03-11T22:55:59.463Z,54.60
2018-03-11T22:58:26.424Z,54.30
2018-03-11T23:00:53.494Z,54.40
2018-03-11T23:03:20.527Z,54.90
2018-03-11T23:05:47.570Z,55.50
2018-03-11T23:08:14.653Z,55.50
2018-03-11T23:10:41.694Z,56.80
2018-03-11T23:13:08.753Z,58.50
2018-03-11T23:15:35.844Z,58.10
2018-03-11T23:18:02.867Z,61.20
2018-03-11T23:20:30.277Z,61.20
2018-03-11T23:25:47.312Z,61.70
2018-03-11T23:28:17.376Z,60.10
2018-03-11T23:30:44.414Z,59.50
2018-03-11T23:33:11.516Z,60.00
2018-03-11T23:35:38.568Z,58.20
2018-03-11T23:38:06.621Z,56.60
2018-03-11T23:40:33.642Z,58.10
2018-03-11T23:43:00.730Z,60.30
2018-03-11T23:45:27.761Z,57.80
2018-03-11T23:47:54.827Z,63.30
2018-03-11T23:50:21.898Z,58.10
2018-03-11T23:52:48.926Z,58.60
2018-03-11T23:55:15.980Z,59.90
